sensor_id;sensor_type;location;lat;lon;timestamp;pressure;altitude;pressure_sealevel;temperature;humidity
50380;BME280;37474;59.468;18.040;2023-09-19T00:01:03;100261.19;;;15.77;100.00
50380;BME280;37474;59.468;18.040;2023-09-19T00:03:35;100268.75;;;15.80;100.00
50380;BME280;37474;59.468;18.040;2023-09-19T00:06:05;100265.09;;;15.83;100.00
50380;BME280;37474;59.468;18.040;2023-09-19T00:08:34;100255.13;;;15.77;100.00
50380;BME280;37474;59.468;18.040;2023-09-19T00:11:02;100252.72;;;15.85;100.00
50380;BME280;37474;59.468;18.040;2023-09-19T00:13:30;100253.41;;;15.87;100.00
50380;BME280;37474;59.468;18.040;2023-09-19T00:15:58;100249.00;;;15.88;100.00
50380;BME280;37474;59.468;18.040;2023-09-19T00:18:27;100236.78;;;15.88;100.00
50380;BME280;37474;59.468;18.040;2023-09-19T00:21:00;100231.56;;;15.88;100.00
50380;BME280;37474;59.468;18.040;2023-09-19T00:23:31;100229.88;;;15.87;100.00
50380;BME280;37474;59.468;18.040;2023-09-19T00:25:59;100225.00;;;15.94;100.00
50380;BME280;37474;59.468;18.040;2023-09-19T00:28:27;100213.81;;;15.92;100.00
50380;BME280;37474;59.468;18.040;2023-09-19T00:30:56;100205.44;;;15.88;100.00
50380;BME280;37474;59.468;18.040;2023-09-19T00:33:28;100210.38;;;15.91;100.00
50380;BME280;37474;59.468;18.040;2023-09-19T00:35:57;100161.66;;;15.69;100.00
50380;BME280;37474;59.468;18.040;2023-09-19T00:38:27;100207.84;;;16.01;100.00
50380;BME280;37474;59.468;18.040;2023-09-19T00:40:55;100173.97;;;15.78;100.00
50380;BME280;37474;59.468;18.040;2023-09-19T00:43:26;100156.88;;;15.74;100.00
50380;BME280;37474;59.468;18.040;2023-09-19T00:45:56;100189.19;;;16.05;100.00
50380;BME280;37474;59.468;18.040;2023-09-19T00:48:27;100194.28;;;16.07;100.00
50380;BME280;37474;59.468;18.040;2023-09-19T00:50:57;100179.72;;;16.14;100.00
50380;BME280;37474;59.468;18.040;2023-09-19T00:53:31;100182.34;;;16.14;100.00
50380;BME280;37474;59.468;18.040;2023-09-19T00:56:01;100174.50;;;16.14;100.00
50380;BME280;37474;59.468;18.040;2023-09-19T00:58:32;100162.38;;;16.13;100.00
50380;BME280;37474;59.468;18.040;2023-09-19T01:01:01;100170.09;;;16.15;100.00
50380;BME280;37474;59.468;18.040;2023-09-19T01:03:33;100136.44;;;16.00;100.00
50380;BME280;37474;59.468;18.040;2023-09-19T01:06:02;100161.16;;;16.17;100.00
50380;BME280;37474;59.468;18.040;2023-09-19T01:08:32;100155.66;;;16.20;100.00
50380;BME280;37474;59.468;18.040;2023-09-19T01:11:10;100135.41;;;16.13;100.00
50380;BME280;37474;59.468;18.040;2023-09-19T01:13:48;100138.53;;;16.27;100.00
50380;BME280;37474;59.468;18.040;2023-09-19T01:16:23;100141.00;;;16.29;100.00
50380;BME280;37474;59.468;18.040;2023-09-19T01:19:02;100131.88;;;16.23;100.00
50380;BME280;37474;59.468;18.040;2023-09-19T01:21:39;100120.75;;;16.21;100.00
50380;BME280;37474;59.468;18.040;2023-09-19T01:27:28;100106.16;;;16.28;100.00
50380;BME280;37474;59.468;18.040;2023-09-19T01:30:09;100093.09;;;16.28;100.00
50380;BME280;37474;59.468;18.040;2023-09-19T01:32:38;100097.22;;;16.31;100.00
50380;BME280;37474;59.468;18.040;2023-09-19T01:35:08;100059.13;;;16.07;100.00
50380;BME280;37474;59.468;18.040;2023-09-19T01:37:39;100076.00;;;16.24;100.00
50380;BME280;37474;59.468;18.040;2023-09-19T01:40:13;100076.81;;;16.25;100.00
50380;BME280;37474;59.468;18.040;2023-09-19T01:42:48;100071.59;;;16.25;100.00
50380;BME280;37474;59.468;18.040;2023-09-19T01:45:24;100070.06;;;16.22;100.00
50380;BME280;37474;59.468;18.040;2023-09-19T01:47:55;100058.38;;;16.26;100.00
50380;BME280;37474;59.468;18.040;2023-09-19T01:50:30;100057.16;;;16.30;100.00
50380;BME280;37474;59.468;18.040;2023-09-19T01:53:03;100045.47;;;16.34;100.00
50380;BME280;37474;59.468;18.040;2023-09-19T01:55:46;100046.88;;;16.39;100.00
50380;BME280;37474;59.468;18.040;2023-09-19T01:58:20;100039.13;;;16.37;100.00
50380;BME280;37474;59.468;18.040;2023-09-19T02:00:51;100037.50;;;16.36;100.00
50380;BME280;37474;59.468;18.040;2023-09-19T02:03:20;100034.34;;;16.42;100.00
50380;BME280;37474;59.468;18.040;2023-09-19T02:05:49;100036.28;;;16.40;100.00
50380;BME280;37474;59.468;18.040;2023-09-19T02:08:19;100020.00;;;16.36;100.00
50380;BME280;37474;59.468;18.040;2023-09-19T02:10:47;100012.16;;;16.36;100.00
50380;BME280;37474;59.468;18.040;2023-09-19T02:13:16;99990.38;;;16.26;100.00
50380;BME280;37474;59.468;18.040;2023-09-19T02:15:46;100008.31;;;16.41;100.00
50380;BME280;37474;59.468;18.040;2023-09-19T02:18:16;100002.66;;;16.35;100.00
50380;BME280;37474;59.468;18.040;2023-09-19T02:20:47;99991.66;;;16.42;100.00
50380;BME280;37474;59.468;18.040;2023-09-19T02:23:15;99984.78;;;16.41;100.00
50380;BME280;37474;59.468;18.040;2023-09-19T02:25:51;99950.16;;;16.18;100.00
50380;BME280;37474;59.468;18.040;2023-09-19T02:28:20;99978.16;;;16.36;100.00
50380;BME280;37474;59.468;18.040;2023-09-19T02:30:49;99969.22;;;16.39;100.00
50380;BME280;37474;59.468;18.040;2023-09-19T02:33:18;99950.50;;;16.34;100.00
50380;BME280;37474;59.468;18.040;2023-09-19T02:35:46;99941.41;;;16.38;100.00
50380;BME280;37474;59.468;18.040;2023-09-19T02:38:14;99934.66;;;16.35;100.00
50380;BME280;37474;59.468;18.040;2023-09-19T02:40:45;99915.63;;;16.24;100.00
50380;BME280;37474;59.468;18.040;2023-09-19T02:43:15;99928.88;;;16.42;100.00
50380;BME280;37474;59.468;18.040;2023-09-19T02:45:45;99927.47;;;16.37;100.00
50380;BME280;37474;59.468;18.040;2023-09-19T02:48:13;99909.72;;;16.31;100.00
50380;BME280;37474;59.468;18.040;2023-09-19T02:50:43;99899.81;;;16.35;100.00
50380;BME280;37474;59.468;18.040;2023-09-19T02:53:12;99900.25;;;16.40;100.00
50380;BME280;37474;59.468;18.040;2023-09-19T02:55:40;99897.63;;;16.40;100.00
50380;BME280;37474;59.468;18.040;2023-09-19T02:58:09;99883.56;;;16.41;100.00
50380;BME280;37474;59.468;18.040;2023-09-19T03:00:38;99886.88;;;16.43;100.00
50380;BME280;37474;59.468;18.040;2023-09-19T03:03:08;99873.25;;;16.40;100.00
50380;BME280;37474;59.468;18.040;2023-09-19T03:05:37;99871.88;;;16.45;100.00
50380;BME280;37474;59.468;18.040;2023-09-19T03:08:06;99861.81;;;16.41;100.00
50380;BME280;37474;59.468;18.040;2023-09-19T03:10:35;99848.19;;;16.47;100.00
50380;BME280;37474;59.468;18.040;2023-09-19T03:13:04;99844.59;;;16.57;100.00
50380;BME280;37474;59.468;18.040;2023-09-19T03:15:32;99840.91;;;16.50;100.00
50380;BME280;37474;59.468;18.040;2023-09-19T03:18:01;99824.66;;;16.47;100.00
50380;BME280;37474;59.468;18.040;2023-09-19T03:20:29;99824.09;;;16.53;100.00
50380;BME280;37474;59.468;18.040;2023-09-19T03:22:57;99820.38;;;16.55;100.00
50380;BME280;37474;59.468;18.040;2023-09-19T03:25:29;99803.72;;;16.56;100.00
50380;BME280;37474;59.468;18.040;2023-09-19T03:27:57;99803.00;;;16.54;100.00
50380;BME280;37474;59.468;18.040;2023-09-19T03:30:25;99794.22;;;16.55;100.00
50380;BME280;37474;59.468;18.040;2023-09-19T03:32:53;99793.78;;;16.60;100.00
50380;BME280;37474;59.468;18.040;2023-09-19T03:35:23;99797.91;;;16.62;100.00
50380;BME280;37474;59.468;18.040;2023-09-19T03:37:51;99777.38;;;16.68;100.00
50380;BME280;37474;59.468;18.040;2023-09-19T03:40:20;99764.03;;;16.61;100.00
50380;BME280;37474;59.468;18.040;2023-09-19T03:42:51;99759.63;;;16.61;100.00
50380;BME280;37474;59.468;18.040;2023-09-19T03:45:19;99754.91;;;16.65;100.00
50380;BME280;37474;59.468;18.040;2023-09-19T03:47:46;99756.88;;;16.63;100.00
50380;BME280;37474;59.468;18.040;2023-09-19T03:50:15;99751.38;;;16.66;100.00
50380;BME280;37474;59.468;18.040;2023-09-19T03:52:44;99746.53;;;16.61;100.00
50380;BME280;37474;59.468;18.040;2023-09-19T03:55:14;99742.53;;;16.67;100.00
50380;BME280;37474;59.468;18.040;2023-09-19T03:57:47;99739.22;;;16.65;100.00
50380;BME280;37474;59.468;18.040;2023-09-19T04:00:21;99725.47;;;16.63;100.00
50380;BME280;37474;59.468;18.040;2023-09-19T04:02:52;99702.22;;;16.50;100.00
50380;BME280;37474;59.468;18.040;2023-09-19T04:05:20;99695.91;;;16.43;100.00
50380;BME280;37474;59.468;18.040;2023-09-19T04:07:48;99728.63;;;16.67;100.00
50380;BME280;37474;59.468;18.040;2023-09-19T04:10:17;99739.22;;;16.65;100.00
50380;BME280;37474;59.468;18.040;2023-09-19T04:12:51;99728.47;;;16.68;100.00
50380;BME280;37474;59.468;18.040;2023-09-19T04:15:22;99698.22;;;16.56;100.00
50380;BME280;37474;59.468;18.040;2023-09-19T04:17:50;99684.19;;;16.47;100.00
50380;BME280;37474;59.468;18.040;2023-09-19T04:20:18;99723.25;;;16.78;100.00
50380;BME280;37474;59.468;18.040;2023-09-19T04:22:49;99722.56;;;16.76;100.00
50380;BME280;37474;59.468;18.040;2023-09-19T04:25:17;99713.06;;;16.75;100.00
50380;BME280;37474;59.468;18.040;2023-09-19T04:27:45;99708.53;;;16.77;100.00
50380;BME280;37474;59.468;18.040;2023-09-19T04:30:14;99710.16;;;16.78;100.00
50380;BME280;37474;59.468;18.040;2023-09-19T04:32:44;99711.22;;;16.85;100.00
50380;BME280;37474;59.468;18.040;2023-09-19T04:35:18;99697.47;;;16.83;100.00
50380;BME280;37474;59.468;18.040;2023-09-19T04:37:45;99699.94;;;16.84;100.00
50380;BME280;37474;59.468;18.040;2023-09-19T04:40:15;99692.63;;;16.88;100.00
50380;BME280;37474;59.468;18.040;2023-09-19T04:42:45;99689.16;;;16.87;100.00
50380;BME280;37474;59.468;18.040;2023-09-19T04:45:13;99677.78;;;16.79;100.00
50380;BME280;37474;59.468;18.040;2023-09-19T04:47:41;99673.63;;;16.86;100.00
50380;BME280;37474;59.468;18.040;2023-09-19T04:50:12;99685.47;;;16.80;100.00
50380;BME280;37474;59.468;18.040;2023-09-19T04:52:41;99680.09;;;16.82;100.00
50380;BME280;37474;59.468;18.040;2023-09-19T04:55:12;99674.44;;;16.86;100.00
50380;BME280;37474;59.468;18.040;2023-09-19T04:57:43;99676.94;;;16.88;100.00
50380;BME280;37474;59.468;18.040;2023-09-19T05:00:13;99653.72;;;16.93;100.00
50380;BME280;37474;59.468;18.040;2023-09-19T05:02:45;99632.03;;;16.83;100.00
50380;BME280;37474;59.468;18.040;2023-09-19T05:05:15;99611.97;;;16.74;100.00
50380;BME280;37474;59.468;18.040;2023-09-19T05:07:44;99648.38;;;16.95;100.00
50380;BME280;37474;59.468;18.040;2023-09-19T05:10:12;99635.28;;;16.95;100.00
50380;BME280;37474;59.468;18.040;2023-09-19T05:12:41;99629.22;;;16.94;100.00
50380;BME280;37474;59.468;18.040;2023-09-19T05:15:11;99629.34;;;16.93;100.00
50380;BME280;37474;59.468;18.040;2023-09-19T05:17:39;99625.91;;;16.92;100.00
50380;BME280;37474;59.468;18.040;2023-09-19T05:20:08;99619.41;;;16.96;100.00
50380;BME280;37474;59.468;18.040;2023-09-19T05:22:41;99623.66;;;16.97;100.00
50380;BME280;37474;59.468;18.040;2023-09-19T05:25:10;99613.31;;;17.05;100.00
50380;BME280;37474;59.468;18.040;2023-09-19T05:27:42;99620.47;;;17.03;100.00
50380;BME280;37474;59.468;18.040;2023-09-19T05:30:11;99610.16;;;17.02;100.00
50380;BME280;37474;59.468;18.040;2023-09-19T05:32:40;99601.03;;;17.06;100.00
50380;BME280;37474;59.468;18.040;2023-09-19T05:35:09;99585.59;;;17.03;100.00
50380;BME280;37474;59.468;18.040;2023-09-19T05:37:41;99586.44;;;17.03;100.00
50380;BME280;37474;59.468;18.040;2023-09-19T05:40:09;99584.78;;;17.02;100.00
50380;BME280;37474;59.468;18.040;2023-09-19T05:42:38;99583.53;;;17.06;100.00
50380;BME280;37474;59.468;18.040;2023-09-19T05:45:08;99584.72;;;17.12;100.00
50380;BME280;37474;59.468;18.040;2023-09-19T05:47:39;99584.28;;;17.17;100.00
50380;BME280;37474;59.468;18.040;2023-09-19T05:50:09;99580.97;;;17.14;100.00
50380;BME280;37474;59.468;18.040;2023-09-19T05:52:38;99577.09;;;17.19;100.00
50380;BME280;37474;59.468;18.040;2023-09-19T05:55:09;99571.41;;;17.23;100.00
50380;BME280;37474;59.468;18.040;2023-09-19T05:57:37;99565.84;;;17.26;100.00
50380;BME280;37474;59.468;18.040;2023-09-19T06:00:06;99562.50;;;17.34;100.00
50380;BME280;37474;59.468;18.040;2023-09-19T06:02:37;99559.94;;;17.42;100.00
50380;BME280;37474;59.468;18.040;2023-09-19T06:05:07;99553.06;;;17.41;100.00
50380;BME280;37474;59.468;18.040;2023-09-19T06:07:37;99547.53;;;17.44;100.00
50380;BME280;37474;59.468;18.040;2023-09-19T06:10:06;99555.00;;;17.39;100.00
50380;BME280;37474;59.468;18.040;2023-09-19T06:12:39;99515.22;;;17.18;100.00
50380;BME280;37474;59.468;18.040;2023-09-19T06:15:07;99548.19;;;17.46;100.00
50380;BME280;37474;59.468;18.040;2023-09-19T06:17:39;99548.47;;;17.43;100.00
50380;BME280;37474;59.468;18.040;2023-09-19T06:20:08;99537.53;;;17.48;100.00
50380;BME280;37474;59.468;18.040;2023-09-19T06:22:40;99538.91;;;17.52;100.00
50380;BME280;37474;59.468;18.040;2023-09-19T06:25:09;99540.69;;;17.51;100.00
50380;BME280;37474;59.468;18.040;2023-09-19T06:27:40;99549.91;;;17.55;100.00
50380;BME280;37474;59.468;18.040;2023-09-19T06:30:09;99543.97;;;17.53;100.00
50380;BME280;37474;59.468;18.040;2023-09-19T06:32:38;99555.00;;;17.57;100.00
50380;BME280;37474;59.468;18.040;2023-09-19T06:35:06;99545.94;;;17.51;100.00
50380;BME280;37474;59.468;18.040;2023-09-19T06:37:37;99484.16;;;17.23;100.00
50380;BME280;37474;59.468;18.040;2023-09-19T06:40:08;99530.06;;;17.53;100.00
50380;BME280;37474;59.468;18.040;2023-09-19T06:42:42;99523.09;;;17.61;100.00
50380;BME280;37474;59.468;18.040;2023-09-19T06:45:14;99516.34;;;17.59;100.00
50380;BME280;37474;59.468;18.040;2023-09-19T06:47:45;99534.22;;;17.63;100.00
50380;BME280;37474;59.468;18.040;2023-09-19T06:50:16;99525.09;;;17.67;100.00
50380;BME280;37474;59.468;18.040;2023-09-19T06:52:45;99521.06;;;17.73;100.00
50380;BME280;37474;59.468;18.040;2023-09-19T06:55:17;99456.22;;;17.31;100.00
50380;BME280;37474;59.468;18.040;2023-09-19T06:57:47;99514.19;;;17.72;100.00
50380;BME280;37474;59.468;18.040;2023-09-19T07:00:16;99443.03;;;17.41;100.00
50380;BME280;37474;59.468;18.040;2023-09-19T07:02:54;99512.59;;;17.87;100.00
50380;BME280;37474;59.468;18.040;2023-09-19T07:05:22;99504.97;;;17.94;100.00
50380;BME280;37474;59.468;18.040;2023-09-19T07:07:50;99491.91;;;17.76;100.00
50380;BME280;37474;59.468;18.040;2023-09-19T07:10:18;99502.25;;;17.78;100.00
50380;BME280;37474;59.468;18.040;2023-09-19T07:12:48;99511.28;;;17.83;100.00
50380;BME280;37474;59.468;18.040;2023-09-19T07:15:21;99500.91;;;17.74;100.00
50380;BME280;37474;59.468;18.040;2023-09-19T07:17:52;99501.19;;;17.71;100.00
50380;BME280;37474;59.468;18.040;2023-09-19T07:20:20;99501.88;;;17.73;100.00
50380;BME280;37474;59.468;18.040;2023-09-19T07:22:49;99498.56;;;17.71;100.00
50380;BME280;37474;59.468;18.040;2023-09-19T07:25:18;99494.75;;;17.65;100.00
50380;BME280;37474;59.468;18.040;2023-09-19T07:27:47;99483.16;;;17.67;100.00
50380;BME280;37474;59.468;18.040;2023-09-19T07:30:15;99487.00;;;17.73;100.00
50380;BME280;37474;59.468;18.040;2023-09-19T07:32:43;99481.13;;;17.79;100.00
50380;BME280;37474;59.468;18.040;2023-09-19T07:35:11;99429.97;;;17.49;100.00
50380;BME280;37474;59.468;18.040;2023-09-19T07:37:39;99475.56;;;17.82;100.00
50380;BME280;37474;59.468;18.040;2023-09-19T07:40:08;99471.09;;;17.75;100.00
50380;BME280;37474;59.468;18.040;2023-09-19T07:42:37;99436.91;;;17.58;100.00
50380;BME280;37474;59.468;18.040;2023-09-19T07:45:09;99462.56;;;17.73;100.00
50380;BME280;37474;59.468;18.040;2023-09-19T07:47:40;99463.59;;;17.80;100.00
50380;BME280;37474;59.468;18.040;2023-09-19T07:50:11;99457.22;;;17.82;100.00
50380;BME280;37474;59.468;18.040;2023-09-19T07:52:39;99455.44;;;17.83;100.00
50380;BME280;37474;59.468;18.040;2023-09-19T07:55:10;99454.75;;;17.81;100.00
50380;BME280;37474;59.468;18.040;2023-09-19T07:57:43;99451.91;;;18.00;100.00
50380;BME280;37474;59.468;18.040;2023-09-19T08:00:14;99421.34;;;17.83;100.00
50380;BME280;37474;59.468;18.040;2023-09-19T08:02:43;99436.28;;;17.90;100.00
50380;BME280;37474;59.468;18.040;2023-09-19T08:05:13;99431.38;;;17.96;100.00
50380;BME280;37474;59.468;18.040;2023-09-19T08:07:45;99403.66;;;17.85;100.00
50380;BME280;37474;59.468;18.040;2023-09-19T08:10:15;99434.22;;;18.10;100.00
50380;BME280;37474;59.468;18.040;2023-09-19T08:12:47;99428.00;;;18.19;100.00
50380;BME280;37474;59.468;18.040;2023-09-19T08:15:18;99386.00;;;18.03;100.00
50380;BME280;37474;59.468;18.040;2023-09-19T08:17:47;99430.16;;;18.24;100.00
50380;BME280;37474;59.468;18.040;2023-09-19T08:20:16;99420.22;;;18.44;100.00
50380;BME280;37474;59.468;18.040;2023-09-19T08:22:47;99421.72;;;18.55;100.00
50380;BME280;37474;59.468;18.040;2023-09-19T08:25:16;99402.03;;;18.51;100.00
50380;BME280;37474;59.468;18.040;2023-09-19T08:27:45;99424.19;;;18.56;100.00
50380;BME280;37474;59.468;18.040;2023-09-19T08:30:19;99423.84;;;18.51;100.00
50380;BME280;37474;59.468;18.040;2023-09-19T08:32:51;99427.41;;;18.42;100.00
50380;BME280;37474;59.468;18.040;2023-09-19T08:35:19;99425.94;;;18.47;100.00
50380;BME280;37474;59.468;18.040;2023-09-19T08:37:47;99389.34;;;18.30;100.00
50380;BME280;37474;59.468;18.040;2023-09-19T08:40:15;99417.75;;;18.59;100.00
50380;BME280;37474;59.468;18.040;2023-09-19T08:42:48;99418.75;;;18.58;100.00
50380;BME280;37474;59.468;18.040;2023-09-19T08:45:19;99358.69;;;18.22;100.00
50380;BME280;37474;59.468;18.040;2023-09-19T08:48:02;99409.09;;;18.66;100.00
50380;BME280;37474;59.468;18.040;2023-09-19T08:50:41;99418.91;;;18.64;100.00
50380;BME280;37474;59.468;18.040;2023-09-19T08:53:19;99402.75;;;18.77;100.00
50380;BME280;37474;59.468;18.040;2023-09-19T08:55:51;99402.06;;;18.83;100.00
50380;BME280;37474;59.468;18.040;2023-09-19T08:58:26;99401.72;;;19.11;100.00
50380;BME280;37474;59.468;18.040;2023-09-19T09:00:58;99390.84;;;19.30;100.00
50380;BME280;37474;59.468;18.040;2023-09-19T09:03:32;99398.38;;;19.49;100.00
50380;BME280;37474;59.468;18.040;2023-09-19T09:06:00;99391.78;;;19.53;100.00
50380;BME280;37474;59.468;18.040;2023-09-19T09:08:30;99382.88;;;19.71;100.00
50380;BME280;37474;59.468;18.040;2023-09-19T09:10:59;99328.09;;;19.35;100.00
50380;BME280;37474;59.468;18.040;2023-09-19T09:13:27;99382.16;;;19.85;100.00
50380;BME280;37474;59.468;18.040;2023-09-19T09:15:55;99378.03;;;19.91;100.00
50380;BME280;37474;59.468;18.040;2023-09-19T09:18:24;99374.59;;;20.21;100.00
50380;BME280;37474;59.468;18.040;2023-09-19T09:20:52;99356.16;;;20.44;100.00
50380;BME280;37474;59.468;18.040;2023-09-19T09:23:22;99362.25;;;20.45;100.00
50380;BME280;37474;59.468;18.040;2023-09-19T09:25:53;99357.03;;;20.37;100.00
50380;BME280;37474;59.468;18.040;2023-09-19T09:28:27;99353.75;;;20.35;100.00
50380;BME280;37474;59.468;18.040;2023-09-19T09:30:55;99345.97;;;20.49;100.00
50380;BME280;37474;59.468;18.040;2023-09-19T09:33:26;99341.97;;;20.53;100.00
50380;BME280;37474;59.468;18.040;2023-09-19T09:35:56;99341.94;;;20.76;100.00
50380;BME280;37474;59.468;18.040;2023-09-19T09:38:28;99345.56;;;20.75;100.00
50380;BME280;37474;59.468;18.040;2023-09-19T09:40:59;99288.88;;;20.50;100.00
50380;BME280;37474;59.468;18.040;2023-09-19T09:43:32;99335.50;;;20.79;100.00
50380;BME280;37474;59.468;18.040;2023-09-19T09:46:07;99338.47;;;20.76;100.00
50380;BME280;37474;59.468;18.040;2023-09-19T09:48:47;99330.22;;;20.79;100.00
50380;BME280;37474;59.468;18.040;2023-09-19T09:51:42;99339.81;;;21.09;99.80
50380;BME280;37474;59.468;18.040;2023-09-19T09:54:15;99341.00;;;21.07;95.22
50380;BME280;37474;59.468;18.040;2023-09-19T09:56:54;99350.88;;;20.90;96.00
50380;BME280;37474;59.468;18.040;2023-09-19T09:59:45;99353.97;;;20.56;97.54
50380;BME280;37474;59.468;18.040;2023-09-19T10:02:35;99353.53;;;20.44;97.38
50380;BME280;37474;59.468;18.040;2023-09-19T10:05:12;99341.84;;;20.47;98.84
50380;BME280;37474;59.468;18.040;2023-09-19T10:07:47;99347.97;;;20.39;97.77
50380;BME280;37474;59.468;18.040;2023-09-19T10:10:33;99352.16;;;20.25;97.32
50380;BME280;37474;59.468;18.040;2023-09-19T10:13:20;99345.09;;;20.26;97.88
50380;BME280;37474;59.468;18.040;2023-09-19T10:15:51;99285.66;;;19.86;98.73
50380;BME280;37474;59.468;18.040;2023-09-19T10:18:23;99333.53;;;20.12;98.61
50380;BME280;37474;59.468;18.040;2023-09-19T10:20:53;99338.09;;;20.18;97.01
50380;BME280;37474;59.468;18.040;2023-09-19T10:23:22;99323.28;;;20.63;96.80
50380;BME280;37474;59.468;18.040;2023-09-19T10:25:53;99319.56;;;21.10;93.92
50380;BME280;37474;59.468;18.040;2023-09-19T10:28:21;99311.56;;;21.48;91.83
50380;BME280;37474;59.468;18.040;2023-09-19T10:30:51;99289.50;;;21.49;88.55
50380;BME280;37474;59.468;18.040;2023-09-19T10:33:20;99318.38;;;21.27;87.63
50380;BME280;37474;59.468;18.040;2023-09-19T10:35:50;99310.56;;;21.04;89.97
50380;BME280;37474;59.468;18.040;2023-09-19T10:38:23;99287.91;;;20.66;92.94
50380;BME280;37474;59.468;18.040;2023-09-19T10:40:53;99293.03;;;20.59;90.89
50380;BME280;37474;59.468;18.040;2023-09-19T10:43:25;99300.88;;;20.67;91.65
50380;BME280;37474;59.468;18.040;2023-09-19T10:45:57;99298.44;;;20.66;92.34
50380;BME280;37474;59.468;18.040;2023-09-19T10:48:29;99303.31;;;21.21;89.97
50380;BME280;37474;59.468;18.040;2023-09-19T10:51:03;99311.47;;;21.56;87.77
50380;BME280;37474;59.468;18.040;2023-09-19T10:53:45;99310.13;;;21.45;86.44
50380;BME280;37474;59.468;18.040;2023-09-19T10:56:21;99311.28;;;21.28;87.22
50380;BME280;37474;59.468;18.040;2023-09-19T10:58:50;99294.56;;;20.91;89.82
50380;BME280;37474;59.468;18.040;2023-09-19T11:01:19;99320.72;;;20.93;90.09
50380;BME280;37474;59.468;18.040;2023-09-19T11:03:48;99312.13;;;20.61;92.64
50380;BME280;37474;59.468;18.040;2023-09-19T11:06:39;99318.31;;;20.45;90.09
50380;BME280;37474;59.468;18.040;2023-09-19T11:09:09;99312.34;;;20.28;92.31
50380;BME280;37474;59.468;18.040;2023-09-19T11:11:50;99312.47;;;20.12;94.58
50380;BME280;37474;59.468;18.040;2023-09-19T11:14:40;99321.91;;;19.98;95.58
50380;BME280;37474;59.468;18.040;2023-09-19T11:17:42;99327.66;;;19.71;96.11
50380;BME280;37474;59.468;18.040;2023-09-19T11:20:23;99325.91;;;19.55;99.32
50380;BME280;37474;59.468;18.040;2023-09-19T11:23:19;99312.44;;;19.50;100.00
50380;BME280;37474;59.468;18.040;2023-09-19T11:25:51;99332.53;;;19.35;100.00
50380;BME280;37474;59.468;18.040;2023-09-19T11:28:31;99325.34;;;19.29;100.00
50380;BME280;37474;59.468;18.040;2023-09-19T11:34:41;99315.63;;;20.08;100.00
50380;BME280;37474;59.468;18.040;2023-09-19T11:40:38;99300.09;;;20.96;99.85
50380;BME280;37474;59.468;18.040;2023-09-19T11:43:33;99302.13;;;21.39;89.29
50380;BME280;37474;59.468;18.040;2023-09-19T11:46:09;99293.09;;;21.99;86.75
50380;BME280;37474;59.468;18.040;2023-09-19T11:48:40;99295.22;;;21.88;83.98
50380;BME280;37474;59.468;18.040;2023-09-19T11:51:19;99293.34;;;21.82;83.63
50380;BME280;37474;59.468;18.040;2023-09-19T11:53:50;99300.94;;;21.56;85.40
50380;BME280;37474;59.468;18.040;2023-09-19T11:56:19;99298.47;;;20.95;79.82
50380;BME280;37474;59.468;18.040;2023-09-19T11:58:50;99299.94;;;20.37;83.81
50380;BME280;37474;59.468;18.040;2023-09-19T12:01:25;99310.50;;;19.83;79.98
50380;BME280;37474;59.468;18.040;2023-09-19T12:03:57;99318.84;;;19.47;78.13
50380;BME280;37474;59.468;18.040;2023-09-19T12:06:29;99329.97;;;19.18;75.54
50380;BME280;37474;59.468;18.040;2023-09-19T12:08:59;99320.09;;;19.29;71.75
50380;BME280;37474;59.468;18.040;2023-09-19T12:11:29;99311.53;;;20.05;72.04
50380;BME280;37474;59.468;18.040;2023-09-19T12:14:01;99305.28;;;20.06;67.93
50380;BME280;37474;59.468;18.040;2023-09-19T12:16:31;99309.88;;;20.04;65.93
50380;BME280;37474;59.468;18.040;2023-09-19T12:19:18;99310.16;;;19.47;71.60
50380;BME280;37474;59.468;18.040;2023-09-19T12:22:01;99311.47;;;19.43;71.32
50380;BME280;37474;59.468;18.040;2023-09-19T12:24:32;99309.34;;;19.46;67.99
50380;BME280;37474;59.468;18.040;2023-09-19T12:27:04;99317.22;;;19.55;68.55
50380;BME280;37474;59.468;18.040;2023-09-19T12:29:42;99285.72;;;19.38;64.64
50380;BME280;37474;59.468;18.040;2023-09-19T12:32:11;99310.28;;;19.62;65.29
50380;BME280;37474;59.468;18.040;2023-09-19T12:34:39;99305.50;;;19.96;59.88
50380;BME280;37474;59.468;18.040;2023-09-19T12:37:12;99310.25;;;20.24;60.07
50380;BME280;37474;59.468;18.040;2023-09-19T12:39:43;99308.84;;;19.82;62.31
50380;BME280;37474;59.468;18.040;2023-09-19T12:42:16;99319.84;;;19.86;66.18
50380;BME280;37474;59.468;18.040;2023-09-19T12:44:46;99309.78;;;20.20;60.64
50380;BME280;37474;59.468;18.040;2023-09-19T12:47:15;99305.78;;;20.01;60.70
50380;BME280;37474;59.468;18.040;2023-09-19T12:50:06;99324.81;;;19.81;60.56
50380;BME280;37474;59.468;18.040;2023-09-19T12:52:43;99312.38;;;19.27;62.33
50380;BME280;37474;59.468;18.040;2023-09-19T12:55:23;99305.34;;;19.03;65.11
50380;BME280;37474;59.468;18.040;2023-09-19T12:58:08;99316.88;;;18.94;64.44
50380;BME280;37474;59.468;18.040;2023-09-19T13:00:37;99314.13;;;18.79;66.82
50380;BME280;37474;59.468;18.040;2023-09-19T13:03:16;99312.78;;;18.75;69.32
50380;BME280;37474;59.468;18.040;2023-09-19T13:05:53;99314.25;;;18.94;66.40
50380;BME280;37474;59.468;18.040;2023-09-19T13:08:27;99322.63;;;18.97;64.94
50380;BME280;37474;59.468;18.040;2023-09-19T13:11:18;99311.63;;;18.86;65.35
50380;BME280;37474;59.468;18.040;2023-09-19T13:13:49;99296.91;;;18.68;65.06